Time;durP1;ratioP1;P1;durP2;ratioP2;P2;SDS_P1;SDS_P2;PMS_P1;PMS_P2;Temp;Humidity;BMP_temperature;BMP_pressure;BME280_temperature;BME280_humidity;BME280_pressure;Samples;Min_cycle;Max_cycle;Signal;HPM_P1;HPM_P2
2024/01/20 00:02:12;;;;;;;26.02;9.43;;;0.40;99.90;;;;;;5093435;28;20029;-66
2024/01/20 00:04:38;;;;;;;34.65;11.98;;;0.40;99.90;;;;;;5093260;28;20032;-66
2024/01/20 00:07:03;;;;;;;30.48;10.13;;;0.40;99.90;;;;;;5093377;28;20032;-66
2024/01/20 00:09:29;;;;;;;32.13;11.02;;;0.40;99.90;;;;;;5093416;28;20025;-65
2024/01/20 00:11:55;;;;;;;32.85;10.93;;;0.40;99.90;;;;;;5093246;28;20040;-66
2024/01/20 00:14:20;;;;;;;37.30;13.75;;;0.50;99.90;;;;;;5093269;28;20025;-65
2024/01/20 00:16:46;;;;;;;29.85;11.43;;;0.50;99.90;;;;;;5093170;28;20066;-66
2024/01/20 00:19:12;;;;;;;34.53;11.27;;;0.40;99.90;;;;;;5093195;28;20077;-66
2024/01/20 00:21:39;;;;;;;29.98;10.13;;;0.40;99.90;;;;;;5093097;28;20036;-66
2024/01/20 00:24:05;;;;;;;45.80;13.93;;;0.40;99.90;;;;;;5093037;28;20009;-66
2024/01/20 00:26:31;;;;;;;29.25;11.95;;;0.50;99.90;;;;;;5093101;28;20024;-66
2024/01/20 00:28:56;;;;;;;31.63;10.82;;;0.50;99.90;;;;;;5091939;28;20037;-66
2024/01/20 00:31:22;;;;;;;41.13;12.23;;;0.50;99.90;;;;;;5092902;28;20043;-65
2024/01/20 00:33:47;;;;;;;34.95;13.23;;;0.60;99.90;;;;;;5092726;28;20040;-66
2024/01/20 00:36:13;;;;;;;33.03;11.52;;;0.60;99.90;;;;;;5092921;28;20044;-67
2024/01/20 00:38:39;;;;;;;32.38;9.75;;;0.60;99.90;;;;;;5092781;28;20078;-66
2024/01/20 00:41:08;;;;;;;35.90;11.15;;;0.60;99.90;;;;;;5092849;28;20031;-66
2024/01/20 00:43:34;;;;;;;39.10;11.55;;;0.60;99.90;;;;;;5092776;28;20100;-66
2024/01/20 00:46:00;;;;;;;28.50;9.95;;;0.60;99.90;;;;;;5092718;28;20032;-67
2024/01/20 00:48:26;;;;;;;38.40;11.68;;;0.60;99.90;;;;;;5092639;28;20025;-66
2024/01/20 00:50:52;;;;;;;32.25;11.23;;;0.60;99.90;;;;;;5092528;28;20036;-65
2024/01/20 00:53:18;;;;;;;32.78;10.38;;;0.60;99.90;;;;;;5092597;28;20058;-66
2024/01/20 00:55:43;;;;;;;33.10;9.35;;;0.70;99.90;;;;;;5092670;28;20020;-66
2024/01/20 00:58:09;;;;;;;34.00;11.18;;;0.70;99.90;;;;;;5092406;28;20033;-67
2024/01/20 01:00:35;;;;;;;28.85;10.20;;;0.70;99.90;;;;;;5092704;28;20035;-65
2024/01/20 01:03:01;;;;;;;30.90;10.85;;;0.70;99.90;;;;;;5092371;28;20040;-66
2024/01/20 01:05:26;;;;;;;35.83;12.38;;;0.70;99.90;;;;;;5092604;28;20044;-66
2024/01/20 01:07:52;;;;;;;33.70;10.65;;;0.70;99.90;;;;;;5092546;28;20084;-65
2024/01/20 01:10:18;;;;;;;31.00;10.60;;;0.80;99.90;;;;;;5092450;28;20522;-66
2024/01/20 01:12:43;;;;;;;33.22;10.57;;;0.70;99.90;;;;;;5092346;28;20033;-66
2024/01/20 01:15:09;;;;;;;29.92;11.88;;;0.70;99.90;;;;;;5092302;28;20040;-66
2024/01/20 01:17:34;;;;;;;27.35;9.25;;;0.80;99.90;;;;;;5092472;28;20021;-66
2024/01/20 01:20:00;;;;;;;27.65;9.00;;;0.70;99.90;;;;;;5092216;28;20031;-66
2024/01/20 01:22:26;;;;;;;28.08;10.13;;;0.70;99.90;;;;;;5092402;28;20024;-66
2024/01/20 01:24:52;;;;;;;32.88;9.90;;;0.70;99.90;;;;;;5092382;28;20029;-66
2024/01/20 01:27:17;;;;;;;32.70;10.73;;;0.70;99.90;;;;;;5092313;28;20028;-66
2024/01/20 01:29:43;;;;;;;35.78;11.55;;;0.70;99.90;;;;;;5092123;28;20036;-66
2024/01/20 01:32:08;;;;;;;27.67;9.38;;;0.70;99.90;;;;;;5092233;28;20032;-66
2024/01/20 01:34:36;;;;;;;34.00;11.73;;;0.70;99.90;;;;;;5092067;28;20024;-66
2024/01/20 01:37:01;;;;;;;27.88;10.05;;;0.60;99.90;;;;;;5092175;28;20025;-66
2024/01/20 01:39:27;;;;;;;24.48;8.20;;;0.70;99.90;;;;;;5092187;28;20032;-67
2024/01/20 01:41:52;;;;;;;32.25;10.57;;;0.60;99.90;;;;;;5092244;28;20021;-66
2024/01/20 01:44:18;;;;;;;20.10;8.18;;;0.70;99.90;;;;;;5092084;28;20459;-66
2024/01/20 01:46:44;;;;;;;32.90;9.48;;;0.70;99.90;;;;;;5092137;28;20037;-67
2024/01/20 01:49:09;;;;;;;28.80;9.45;;;0.60;99.90;;;;;;5091085;28;20029;-65
2024/01/20 01:51:36;;;;;;;33.70;9.98;;;0.60;99.90;;;;;;5092211;28;20021;-65
2024/01/20 01:54:03;;;;;;;31.05;8.90;;;0.60;99.90;;;;;;5092006;28;20025;-65
2024/01/20 01:56:30;;;;;;;31.00;8.63;;;0.60;99.90;;;;;;5092011;28;20047;-66
2024/01/20 01:58:58;;;;;;;23.70;8.90;;;0.60;99.90;;;;;;5091873;28;20080;-65
2024/01/20 02:01:24;;;;;;;30.40;9.63;;;0.60;99.90;;;;;;5092055;28;20058;-66
2024/01/20 02:03:50;;;;;;;25.52;9.32;;;0.60;99.90;;;;;;5095019;28;20037;-65
2024/01/20 02:06:17;;;;;;;23.27;8.30;;;0.60;99.90;;;;;;5095877;28;20378;-65
2024/01/20 02:08:43;;;;;;;22.42;8.52;;;0.60;99.90;;;;;;5095687;28;20037;-65
2024/01/20 02:11:09;;;;;;;30.88;9.35;;;0.60;99.90;;;;;;5095653;28;20028;-65
2024/01/20 02:13:35;;;;;;;23.63;8.80;;;0.60;99.90;;;;;;5095492;28;20058;-66
2024/01/20 02:16:02;;;;;;;32.70;7.88;;;0.60;99.90;;;;;;5094544;28;20058;-65
2024/01/20 02:18:28;;;;;;;22.55;7.63;;;0.60;99.90;;;;;;5095534;28;20028;-66
2024/01/20 02:20:54;;;;;;;25.77;8.68;;;0.60;99.90;;;;;;5095482;28;20029;-65
2024/01/20 02:23:20;;;;;;;25.90;8.93;;;0.60;99.90;;;;;;5095476;28;20032;-66
2024/01/20 02:25:46;;;;;;;27.00;8.30;;;0.60;99.90;;;;;;5095266;28;20033;-67
2024/01/20 02:28:12;;;;;;;26.45;8.18;;;0.60;99.90;;;;;;5095454;28;20056;-65
2024/01/20 02:30:38;;;;;;;28.67;9.35;;;0.50;99.90;;;;;;5095416;28;20032;-66
2024/01/20 02:33:04;;;;;;;28.52;9.30;;;0.60;99.90;;;;;;5095091;28;20052;-66
2024/01/20 02:35:29;;;;;;;24.27;8.52;;;0.60;99.90;;;;;;5095262;28;20035;-65
2024/01/20 02:37:55;;;;;;;26.92;9.02;;;0.60;99.90;;;;;;5094153;28;20036;-66
2024/01/20 02:40:21;;;;;;;28.17;9.52;;;0.50;99.90;;;;;;5095133;28;20076;-66
2024/01/20 02:42:47;;;;;;;26.75;7.53;;;0.50;99.90;;;;;;5095213;28;20028;-66
2024/01/20 02:45:12;;;;;;;35.03;10.60;;;0.50;99.90;;;;;;5095085;28;20101;-67
2024/01/20 02:47:38;;;;;;;29.35;8.27;;;0.50;99.90;;;;;;5093992;28;20067;-65
2024/01/20 02:50:05;;;;;;;30.00;10.02;;;0.50;99.90;;;;;;5095029;28;20028;-65
2024/01/20 02:52:31;;;;;;;24.25;8.23;;;0.50;99.90;;;;;;5094833;28;20031;-65
2024/01/20 02:54:56;;;;;;;29.58;9.85;;;0.50;99.90;;;;;;5093709;28;20033;-66
2024/01/20 02:57:22;;;;;;;22.48;7.82;;;0.50;99.90;;;;;;5093996;28;20029;-66
2024/01/20 02:59:47;;;;;;;32.30;9.00;;;0.50;99.90;;;;;;5094667;28;20048;-66
2024/01/20 03:02:13;;;;;;;24.35;8.48;;;0.50;99.90;;;;;;5094756;28;20032;-66
2024/01/20 03:04:38;;;;;;;22.27;7.53;;;0.50;99.90;;;;;;5094528;28;20303;-66
2024/01/20 03:07:04;;;;;;;23.58;8.85;;;0.50;99.90;;;;;;5094568;28;20033;-65
2024/01/20 03:09:30;;;;;;;28.83;10.18;;;0.50;99.90;;;;;;5093573;28;20024;-66
2024/01/20 03:11:55;;;;;;;23.00;8.05;;;0.50;99.90;;;;;;5094480;28;20471;-66
2024/01/20 03:14:21;;;;;;;24.67;8.65;;;0.40;99.90;;;;;;5094450;28;20039;-65
2024/01/20 03:16:46;;;;;;;29.10;9.02;;;0.50;99.90;;;;;;5094501;28;20059;-65
2024/01/20 03:19:12;;;;;;;16.67;7.05;;;0.50;99.90;;;;;;5094433;28;20028;-65
2024/01/20 03:21:38;;;;;;;26.90;8.70;;;0.50;99.90;;;;;;5094270;28;20032;-65
2024/01/20 03:24:03;;;;;;;21.02;9.25;;;0.40;99.90;;;;;;5094169;28;20119;-66
2024/01/20 03:26:29;;;;;;;22.42;8.32;;;0.40;99.90;;;;;;5094356;28;20029;-66
2024/01/20 03:28:55;;;;;;;27.02;8.80;;;0.50;99.90;;;;;;5094217;28;20028;-66
2024/01/20 03:31:20;;;;;;;26.10;8.85;;;0.50;99.90;;;;;;5094194;28;20382;-65
2024/01/20 03:33:46;;;;;;;25.33;9.52;;;0.50;99.90;;;;;;5093881;28;20032;-65
2024/01/20 03:36:11;;;;;;;22.40;6.88;;;0.40;99.90;;;;;;5094122;28;20033;-65
2024/01/20 03:38:37;;;;;;;26.02;8.73;;;0.40;99.90;;;;;;5093983;28;20028;-65
2024/01/20 03:41:03;;;;;;;25.02;8.20;;;0.40;99.90;;;;;;5094093;28;20036;-66
2024/01/20 03:43:29;;;;;;;25.90;9.18;;;0.30;99.90;;;;;;5093891;28;20021;-65
2024/01/20 03:45:55;;;;;;;27.33;9.70;;;0.30;99.90;;;;;;5093878;28;20264;-65
2024/01/20 03:48:21;;;;;;;27.88;9.98;;;0.40;99.90;;;;;;5092876;28;20099;-66
2024/01/20 03:50:46;;;;;;;25.25;9.00;;;0.30;99.90;;;;;;5093833;28;20021;-66
2024/01/20 03:53:12;;;;;;;21.20;7.47;;;0.40;99.90;;;;;;5093549;28;20360;-65
2024/01/20 03:55:38;;;;;;;24.23;8.48;;;0.40;99.90;;;;;;5093730;28;20039;-65
2024/01/20 03:58:03;;;;;;;30.23;9.48;;;0.50;99.90;;;;;;5093364;28;20029;-66
2024/01/20 04:00:29;;;;;;;33.75;7.85;;;0.50;99.90;;;;;;5093530;28;20111;-66
2024/01/20 04:02:55;;;;;;;24.60;7.85;;;0.50;99.90;;;;;;5093165;28;20028;-66
2024/01/20 04:05:21;;;;;;;19.95;6.35;;;0.50;99.90;;;;;;5093367;28;20048;-65
2024/01/20 04:07:48;;;;;;;19.33;7.60;;;0.50;99.90;;;;;;5093223;28;20040;-65
2024/01/20 04:10:14;;;;;;;18.35;7.03;;;0.50;99.90;;;;;;5093344;28;20088;-65
2024/01/20 04:12:40;;;;;;;26.08;9.25;;;0.50;99.90;;;;;;5093216;28;20028;-66
2024/01/20 04:15:06;;;;;;;21.95;8.45;;;0.60;99.90;;;;;;5093289;28;20035;-65
2024/01/20 04:17:32;;;;;;;25.35;9.07;;;0.50;99.90;;;;;;5093309;28;20031;-66
2024/01/20 04:19:58;;;;;;;19.63;8.15;;;0.50;99.90;;;;;;5093157;28;20021;-66
2024/01/20 04:22:24;;;;;;;27.52;9.40;;;0.60;99.90;;;;;;5093132;28;20039;-65
2024/01/20 04:24:49;;;;;;;21.55;7.45;;;0.60;99.90;;;;;;5092687;28;20028;-66
2024/01/20 04:27:15;;;;;;;23.20;7.78;;;0.60;99.90;;;;;;5093182;28;20039;-66
2024/01/20 04:29:40;;;;;;;23.40;7.82;;;0.60;99.90;;;;;;5092996;28;20028;-66
2024/01/20 04:32:06;;;;;;;23.30;8.25;;;0.60;99.90;;;;;;5092985;28;20039;-66
2024/01/20 04:34:31;;;;;;;22.33;8.35;;;0.60;99.90;;;;;;5092784;28;20032;-65
2024/01/20 04:36:57;;;;;;;24.90;8.95;;;0.60;99.90;;;;;;5092795;28;20032;-65
2024/01/20 04:39:23;;;;;;;25.20;8.50;;;0.60;99.90;;;;;;5092881;28;20036;-66
2024/01/20 04:41:48;;;;;;;19.50;8.35;;;0.60;99.90;;;;;;5092829;28;20035;-66
2024/01/20 04:44:14;;;;;;;22.13;8.48;;;0.60;99.90;;;;;;5092844;28;20028;-65
2024/01/20 04:46:39;;;;;;;24.88;8.68;;;0.60;99.90;;;;;;5091873;28;20025;-65
2024/01/20 04:49:05;;;;;;;22.70;8.55;;;0.60;99.90;;;;;;5092779;28;20037;-65
2024/01/20 04:51:31;;;;;;;17.73;6.57;;;0.60;99.90;;;;;;5092821;28;20037;-66
2024/01/20 04:53:56;;;;;;;23.60;8.98;;;0.60;99.90;;;;;;5092523;28;20033;-66
2024/01/20 04:56:22;;;;;;;18.95;8.00;;;0.60;99.90;;;;;;5092639;28;20091;-66
2024/01/20 04:58:49;;;;;;;21.17;8.10;;;0.60;99.90;;;;;;5091611;28;20048;-66
2024/01/20 05:01:15;;;;;;;22.95;8.18;;;0.60;99.90;;;;;;5092572;28;20025;-65
2024/01/20 05:03:41;;;;;;;23.77;7.78;;;0.60;99.90;;;;;;5092390;28;20052;-66
2024/01/20 05:06:06;;;;;;;23.45;8.20;;;0.60;99.90;;;;;;5092592;28;20028;-66
2024/01/20 05:08:32;;;;;;;18.80;7.75;;;0.60;99.90;;;;;;5092510;28;20044;-66
2024/01/20 05:10:57;;;;;;;23.48;7.82;;;0.60;99.90;;;;;;5092505;28;20025;-65
2024/01/20 05:13:23;;;;;;;26.35;9.07;;;0.60;99.90;;;;;;5092403;28;20071;-66
2024/01/20 05:15:49;;;;;;;26.35;7.38;;;0.60;99.90;;;;;;5092487;28;20028;-66
2024/01/20 05:18:15;;;;;;;22.70;8.38;;;0.60;99.90;;;;;;5092422;28;20025;-66
2024/01/20 05:20:40;;;;;;;18.58;8.25;;;0.60;99.90;;;;;;5092392;28;20028;-65
2024/01/20 05:23:06;;;;;;;24.00;8.55;;;0.60;99.90;;;;;;5092438;28;20090;-66
2024/01/20 05:25:31;;;;;;;30.13;9.63;;;0.60;99.90;;;;;;5091418;28;20047;-66
2024/01/20 05:27:57;;;;;;;22.88;8.57;;;0.60;99.90;;;;;;5092395;28;20032;-66
2024/01/20 05:30:23;;;;;;;18.58;7.45;;;0.70;99.90;;;;;;5092342;28;20097;-67
2024/01/20 05:32:49;;;;;;;21.75;8.40;;;0.70;99.90;;;;;;5092092;28;20052;-66
2024/01/20 05:35:15;;;;;;;30.35;10.52;;;0.70;99.90;;;;;;5092257;28;20391;-66
2024/01/20 05:37:40;;;;;;;19.55;7.97;;;0.70;99.90;;;;;;5093798;28;20048;-65
2024/01/20 05:40:07;;;;;;;32.47;10.32;;;0.80;99.90;;;;;;5096273;28;20558;-66
2024/01/20 05:42:32;;;;;;;21.10;8.63;;;0.80;99.90;;;;;;5096320;28;20048;-66
2024/01/20 05:44:59;;;;;;;20.90;7.55;;;0.80;99.90;;;;;;5096289;28;20039;-66
2024/01/20 05:47:25;;;;;;;21.38;8.85;;;0.80;99.90;;;;;;5096250;28;20023;-66
2024/01/20 05:49:51;;;;;;;21.70;7.63;;;0.80;99.90;;;;;;5096039;28;20048;-66
2024/01/20 05:52:16;;;;;;;18.77;7.35;;;0.80;99.90;;;;;;5096010;28;20039;-65
2024/01/20 05:54:42;;;;;;;23.92;8.02;;;0.70;99.90;;;;;;5096057;28;20029;-66
2024/01/20 05:57:08;;;;;;;21.10;6.85;;;0.80;99.90;;;;;;5096168;28;20047;-65
2024/01/20 05:59:34;;;;;;;21.05;7.38;;;0.70;99.90;;;;;;5095697;28;20045;-66
2024/01/20 06:02:00;;;;;;;22.60;8.02;;;0.70;99.90;;;;;;5095982;28;20055;-65
2024/01/20 06:04:26;;;;;;;19.40;7.25;;;0.70;99.90;;;;;;5094515;28;20028;-66
2024/01/20 06:06:52;;;;;;;25.45;8.27;;;0.60;99.90;;;;;;5094726;28;20100;-65
2024/01/20 06:09:17;;;;;;;24.00;6.15;;;0.70;99.90;;;;;;5095735;28;20043;-66
2024/01/20 06:11:43;;;;;;;22.98;8.20;;;0.70;99.90;;;;;;5095705;28;20029;-65
2024/01/20 06:14:09;;;;;;;25.92;8.75;;;0.70;99.90;;;;;;5095581;28;20048;-66
2024/01/20 06:16:38;;;;;;;24.67;9.55;;;0.70;99.90;;;;;;5095725;28;20032;-65
2024/01/20 06:19:04;;;;;;;18.52;7.38;;;0.70;99.90;;;;;;5095416;28;20063;-65
2024/01/20 06:21:30;;;;;;;17.33;7.88;;;0.70;99.90;;;;;;5095445;28;20021;-65
2024/01/20 06:23:55;;;;;;;24.33;8.73;;;0.70;99.90;;;;;;5095466;28;20037;-66
2024/01/20 06:26:21;;;;;;;24.25;8.68;;;0.60;99.90;;;;;;5095440;28;20036;-65
2024/01/20 06:28:47;;;;;;;20.95;8.57;;;0.70;99.90;;;;;;5095390;28;20096;-65
2024/01/20 06:31:26;;;;;;;23.88;8.30;;;0.70;99.90;;;;;;5095349;28;20111;-65
2024/01/20 06:33:52;;;;;;;19.17;7.00;;;0.70;99.90;;;;;;5094902;28;20031;-65
2024/01/20 06:36:21;;;;;;;29.90;9.95;;;0.70;99.90;;;;;;5095285;28;20029;-66
2024/01/20 06:38:47;;;;;;;21.88;8.90;;;0.70;99.90;;;;;;5095173;28;20025;-66
2024/01/20 06:41:13;;;;;;;21.35;7.78;;;0.70;99.90;;;;;;5095238;28;20029;-66
2024/01/20 06:43:39;;;;;;;25.52;9.02;;;0.70;99.90;;;;;;5095186;28;20028;-66
2024/01/20 06:46:04;;;;;;;23.02;7.10;;;0.70;99.90;;;;;;5095081;28;20084;-65
2024/01/20 06:48:32;;;;;;;25.88;8.50;;;0.70;99.90;;;;;;5094617;28;20032;-65
2024/01/20 06:50:59;;;;;;;29.95;8.85;;;0.70;99.90;;;;;;5095089;28;20084;-66
2024/01/20 06:53:26;;;;;;;19.85;7.78;;;0.70;99.90;;;;;;5094905;28;20021;-65
2024/01/20 06:55:52;;;;;;;23.55;8.07;;;0.70;99.90;;;;;;5095112;28;20024;-65
2024/01/20 06:58:17;;;;;;;28.65;9.50;;;0.70;99.90;;;;;;5094901;28;20043;-66
2024/01/20 07:00:43;;;;;;;23.05;8.45;;;0.70;99.90;;;;;;5084767;28;20054;-68
2024/01/20 07:03:09;;;;;;;23.83;7.95;;;0.70;99.90;;;;;;5053515;28;20084;-65
2024/01/20 07:05:34;;;;;;;24.42;8.35;;;0.70;99.90;;;;;;5054587;28;20089;-66
2024/01/20 07:08:00;;;;;;;22.02;8.88;;;0.60;99.90;;;;;;5054543;28;20037;-65
2024/01/20 07:10:25;;;;;;;24.63;8.15;;;0.60;99.90;;;;;;5054647;28;20061;-66
2024/01/20 07:12:51;;;;;;;27.10;9.63;;;0.60;99.90;;;;;;5054495;28;20069;-66
2024/01/20 07:15:17;;;;;;;25.65;7.40;;;0.60;99.90;;;;;;5054449;28;20029;-65
2024/01/20 07:17:42;;;;;;;22.35;8.60;;;0.60;99.90;;;;;;5054456;28;20030;-65
2024/01/20 07:20:10;;;;;;;27.05;10.27;;;0.60;99.90;;;;;;5054307;28;20041;-65
2024/01/20 07:22:36;;;;;;;23.17;10.18;;;0.60;99.90;;;;;;5054423;28;20028;-65
2024/01/20 07:25:02;;;;;;;21.92;7.60;;;0.60;99.90;;;;;;5054300;28;20038;-65
2024/01/20 07:27:27;;;;;;;30.73;8.15;;;0.60;99.90;;;;;;5054319;28;20064;-66
2024/01/20 07:29:53;;;;;;;23.13;7.82;;;0.50;99.90;;;;;;5054142;28;20034;-65
2024/01/20 07:32:19;;;;;;;21.23;6.53;;;0.50;99.90;;;;;;5053963;28;20033;-65
2024/01/20 07:34:45;;;;;;;17.63;7.10;;;0.50;99.90;;;;;;5054157;28;20056;-65
2024/01/20 07:37:11;;;;;;;26.13;9.23;;;0.50;99.90;;;;;;5053114;28;20026;-65
2024/01/20 07:39:36;;;;;;;21.58;9.45;;;0.60;99.90;;;;;;5054077;28;20048;-65
2024/01/20 07:42:02;;;;;;;25.48;7.75;;;0.60;99.90;;;;;;5054091;28;20028;-64
2024/01/20 07:44:28;;;;;;;30.02;10.73;;;0.60;99.90;;;;;;5053775;28;20227;-65
2024/01/20 07:46:54;;;;;;;23.65;9.15;;;0.50;99.90;;;;;;5053858;28;20021;-65
2024/01/20 07:49:19;;;;;;;29.05;11.07;;;0.50;99.90;;;;;;5053836;28;20041;-65
2024/01/20 07:51:45;;;;;;;25.45;8.40;;;0.50;99.90;;;;;;5053793;28;20029;-65
2024/01/20 07:54:12;;;;;;;28.17;9.57;;;0.50;99.90;;;;;;5053639;28;20044;-65
2024/01/20 07:56:37;;;;;;;24.25;9.18;;;0.50;99.90;;;;;;5053615;28;20022;-65
2024/01/20 07:59:03;;;;;;;25.05;9.20;;;0.50;99.90;;;;;;5053425;28;20076;-66
2024/01/20 08:01:29;;;;;;;18.90;7.95;;;0.50;99.90;;;;;;5052856;28;20041;-65
2024/01/20 08:03:54;;;;;;;20.40;8.27;;;0.50;99.90;;;;;;5053480;28;20033;-66
2024/01/20 08:06:20;;;;;;;25.42;9.48;;;0.50;99.90;;;;;;5053484;28;20040;-65
2024/01/20 08:08:45;;;;;;;23.42;8.80;;;0.50;99.90;;;;;;5053493;28;20022;-65
2024/01/20 08:11:12;;;;;;;20.08;8.07;;;0.50;99.90;;;;;;5053487;28;20033;-65
2024/01/20 08:13:38;;;;;;;26.38;10.00;;;0.50;99.90;;;;;;5053267;28;20472;-65
2024/01/20 08:16:04;;;;;;;26.23;7.95;;;0.50;99.90;;;;;;5053367;28;20133;-65
2024/01/20 08:18:30;;;;;;;27.30;10.85;;;0.50;99.90;;;;;;5052400;28;20029;-65
2024/01/20 08:20:55;;;;;;;24.08;8.23;;;0.50;99.90;;;;;;5053218;28;20034;-65
2024/01/20 08:23:21;;;;;;;24.65;9.00;;;0.50;99.90;;;;;;5053290;28;20037;-66
2024/01/20 08:25:47;;;;;;;24.80;9.35;;;0.50;99.90;;;;;;5053188;28;20042;-65
2024/01/20 08:28:12;;;;;;;22.90;9.02;;;0.60;99.90;;;;;;5053095;28;20030;-66
2024/01/20 08:30:38;;;;;;;24.88;10.38;;;0.60;99.90;;;;;;5053099;28;20044;-66
2024/01/20 08:33:04;;;;;;;25.23;7.75;;;0.60;99.90;;;;;;5052834;28;20038;-66
2024/01/20 08:35:29;;;;;;;22.73;8.15;;;0.60;99.90;;;;;;5052982;28;20022;-66
2024/01/20 08:37:55;;;;;;;17.05;7.88;;;0.50;99.90;;;;;;5053009;28;20041;-65
2024/01/20 08:40:20;;;;;;;26.77;9.60;;;0.50;99.90;;;;;;5052994;28;20014;-66
2024/01/20 08:42:46;;;;;;;30.20;9.50;;;0.50;99.90;;;;;;5052896;28;20059;-65
2024/01/20 08:45:12;;;;;;;31.38;10.85;;;0.50;99.90;;;;;;5051837;28;20041;-66
2024/01/20 08:47:37;;;;;;;27.25;10.00;;;0.50;99.90;;;;;;5052852;28;20533;-67
2024/01/20 08:50:03;;;;;;;27.60;9.38;;;0.50;99.90;;;;;;5052694;28;20037;-66
2024/01/20 08:52:29;;;;;;;25.98;9.45;;;0.50;99.90;;;;;;5052620;28;20037;-66
2024/01/20 08:54:55;;;;;;;29.23;9.25;;;0.50;99.90;;;;;;5052656;28;20044;-66
2024/01/20 08:57:21;;;;;;;24.13;8.70;;;0.50;99.90;;;;;;5052549;28;20017;-66
2024/01/20 08:59:47;;;;;;;26.67;8.68;;;0.50;99.90;;;;;;5052470;28;20055;-66
2024/01/20 09:02:12;;;;;;;20.63;8.80;;;0.60;99.90;;;;;;5052583;28;20033;-66
2024/01/20 09:04:38;;;;;;;28.35;10.15;;;0.60;99.90;;;;;;5052462;28;20034;-66
2024/01/20 09:07:04;;;;;;;24.80;8.68;;;0.60;99.90;;;;;;5052515;28;20033;-66
2024/01/20 09:09:29;;;;;;;24.48;9.93;;;0.70;99.90;;;;;;5052593;28;20034;-66
2024/01/20 09:11:55;;;;;;;28.65;9.88;;;0.70;99.90;;;;;;5052217;28;20037;-66
2024/01/20 09:14:21;;;;;;;23.23;9.27;;;0.70;99.90;;;;;;5052422;28;20032;-66
2024/01/20 09:16:46;;;;;;;28.45;8.15;;;0.70;99.90;;;;;;5052488;28;20033;-66
2024/01/20 09:19:12;;;;;;;22.95;9.23;;;0.80;99.90;;;;;;5051480;28;20022;-66
2024/01/20 09:21:37;;;;;;;22.50;8.88;;;0.70;99.90;;;;;;5052342;28;20025;-65
2024/01/20 09:24:03;;;;;;;27.20;9.48;;;0.80;99.90;;;;;;5052338;28;20029;-66
2024/01/20 09:26:29;;;;;;;26.70;9.50;;;0.80;99.90;;;;;;5034820;28;20041;-66
2024/01/20 09:28:54;;;;;;;24.48;9.10;;;0.70;99.90;;;;;;5052340;28;20038;-66
2024/01/20 09:31:20;;;;;;;22.10;8.98;;;0.70;99.90;;;;;;5051369;28;20056;-66
2024/01/20 09:33:46;;;;;;;28.27;8.13;;;0.70;99.90;;;;;;5052071;28;20029;-66
2024/01/20 09:36:12;;;;;;;24.73;9.40;;;0.70;99.90;;;;;;5052241;28;20022;-66
2024/01/20 09:38:37;;;;;;;22.42;7.82;;;0.70;99.90;;;;;;5052117;28;20055;-66
2024/01/20 09:41:09;;;;;;;23.88;8.02;;;0.70;99.90;;;;;;5052115;28;20032;-66
2024/01/20 09:43:38;;;;;;;28.05;9.90;;;0.70;99.90;;;;;;5052138;28;20025;-66
2024/01/20 09:46:03;;;;;;;32.85;8.90;;;0.80;99.90;;;;;;5052112;28;20032;-66
2024/01/20 09:48:29;;;;;;;28.33;10.00;;;0.80;99.90;;;;;;5052072;28;20033;-66
2024/01/20 09:50:55;;;;;;;24.05;8.73;;;0.80;99.90;;;;;;5052137;28;20030;-66
2024/01/20 09:53:21;;;;;;;19.88;8.63;;;0.90;99.90;;;;;;5050990;28;20029;-65
2024/01/20 09:55:46;;;;;;;22.38;7.63;;;0.90;99.90;;;;;;5052037;28;20069;-65
2024/01/20 09:58:15;;;;;;;22.08;8.10;;;0.90;99.90;;;;;;5052080;28;20034;-66
2024/01/20 10:00:41;;;;;;;19.80;7.80;;;0.80;99.90;;;;;;5050570;28;20042;-64
2024/01/20 10:03:11;;;;;;;28.02;8.32;;;0.90;99.90;;;;;;5069130;28;20092;-65
2024/01/20 10:05:37;;;;;;;25.42;8.98;;;0.90;99.90;;;;;;5071438;28;20029;-65
2024/01/20 10:08:05;;;;;;;21.13;9.02;;;0.80;99.90;;;;;;5071574;28;20041;-66
2024/01/20 10:10:32;;;;;;;23.25;8.05;;;0.80;99.90;;;;;;5071448;28;20028;-65
2024/01/20 10:12:58;;;;;;;24.15;8.00;;;0.80;99.90;;;;;;5071569;28;20028;-65
2024/01/20 10:15:26;;;;;;;24.50;9.43;;;0.90;99.90;;;;;;5071256;28;20031;-65
2024/01/20 10:17:52;;;;;;;26.67;8.38;;;0.90;99.90;;;;;;5071612;28;20085;-66
2024/01/20 10:20:22;;;;;;;19.63;7.40;;;0.90;99.90;;;;;;5071506;28;20395;-65
2024/01/20 10:22:49;;;;;;;22.85;7.57;;;0.90;99.90;;;;;;5071431;28;20028;-65
2024/01/20 10:25:19;;;;;;;21.88;8.82;;;0.90;99.90;;;;;;5074836;28;20040;-66
2024/01/20 10:27:46;;;;;;;29.02;10.25;;;0.90;99.90;;;;;;5075087;28;20048;-65
2024/01/20 10:30:12;;;;;;;23.50;7.70;;;0.90;99.90;;;;;;5075120;28;20142;-65
2024/01/20 10:32:41;;;;;;;26.60;8.95;;;0.90;99.90;;;;;;5074655;28;20044;-66
2024/01/20 10:35:08;;;;;;;23.73;9.32;;;1.00;99.90;;;;;;5074943;28;20083;-65
2024/01/20 10:37:36;;;;;;;26.85;9.57;;;1.10;99.90;;;;;;5074658;28;20093;-66
2024/01/20 10:40:03;;;;;;;29.33;10.95;;;1.10;99.90;;;;;;5074777;28;20493;-66
2024/01/20 10:42:32;;;;;;;26.75;9.20;;;1.10;99.90;;;;;;5074961;28;20169;-65
2024/01/20 10:45:08;;;;;;;31.58;8.90;;;1.20;99.90;;;;;;5074799;28;20059;-66
2024/01/20 10:47:39;;;;;;;29.80;8.90;;;1.20;99.90;;;;;;5074591;28;20033;-66
2024/01/20 10:50:07;;;;;;;24.17;8.00;;;1.20;99.90;;;;;;5074392;28;20025;-66
2024/01/20 10:52:34;;;;;;;30.02;9.75;;;1.20;99.90;;;;;;5074822;28;20447;-66
2024/01/20 10:55:00;;;;;;;23.95;8.85;;;1.20;99.90;;;;;;5074501;28;20017;-65
2024/01/20 10:57:27;;;;;;;23.52;8.50;;;1.20;99.90;;;;;;5074343;28;20017;-66
2024/01/20 10:59:54;;;;;;;28.77;9.73;;;1.20;99.90;;;;;;5074170;28;20049;-65
2024/01/20 11:02:22;;;;;;;27.63;9.05;;;1.20;99.90;;;;;;5073204;28;20032;-65
2024/01/20 11:04:48;;;;;;;23.13;9.27;;;1.20;99.90;;;;;;5074367;28;20028;-67
2024/01/20 11:07:23;;;;;;;26.98;9.82;;;1.20;99.90;;;;;;5074142;28;20033;-67
2024/01/20 11:10:01;;;;;;;23.63;8.68;;;1.20;99.90;;;;;;5074212;28;20032;-66
2024/01/20 11:12:28;;;;;;;25.85;8.65;;;1.20;99.90;;;;;;5074044;28;20053;-66
2024/01/20 11:14:57;;;;;;;27.20;9.65;;;1.20;99.90;;;;;;5074010;28;20028;-65
2024/01/20 11:17:23;;;;;;;24.25;7.97;;;1.20;99.90;;;;;;5073756;28;20024;-66
2024/01/20 11:19:50;;;;;;;21.13;7.82;;;1.20;99.90;;;;;;5074108;28;20028;-66
2024/01/20 11:22:39;;;;;;;26.25;8.65;;;1.30;99.90;;;;;;5073137;28;20040;-65
2024/01/20 11:25:07;;;;;;;22.27;8.25;;;1.40;99.90;;;;;;5073980;28;20033;-65
2024/01/20 11:27:47;;;;;;;24.15;10.30;;;1.40;99.90;;;;;;5073615;28;20029;-66
2024/01/20 11:30:13;;;;;;;23.05;9.23;;;1.50;99.90;;;;;;5072718;28;20020;-66
2024/01/20 11:32:38;;;;;;;17.52;7.93;;;1.50;99.90;;;;;;5073451;28;20039;-65
2024/01/20 11:35:05;;;;;;;25.60;9.27;;;1.50;99.90;;;;;;5072677;28;20050;-65
2024/01/20 11:37:34;;;;;;;30.90;10.48;;;1.50;99.90;;;;;;5073520;28;20025;-65
2024/01/20 11:40:07;;;;;;;20.48;7.43;;;1.60;99.90;;;;;;5073541;28;20049;-66
2024/01/20 11:42:34;;;;;;;24.27;8.93;;;1.60;99.90;;;;;;5073708;28;20028;-65
2024/01/20 11:45:04;;;;;;;27.63;8.75;;;1.50;99.90;;;;;;5072640;28;20063;-66
2024/01/20 11:47:30;;;;;;;25.13;8.20;;;1.50;99.90;;;;;;5072362;28;20037;-65
2024/01/20 11:49:56;;;;;;;20.27;7.28;;;1.50;99.90;;;;;;5073522;28;20036;-65
2024/01/20 11:52:22;;;;;;;19.38;8.07;;;1.60;99.90;;;;;;5073357;28;20033;-66
2024/01/20 11:54:48;;;;;;;23.98;7.70;;;1.60;99.90;;;;;;5073473;28;20021;-65
2024/01/20 11:57:21;;;;;;;26.80;9.43;;;1.50;99.90;;;;;;5073184;28;20051;-66
2024/01/20 11:59:48;;;;;;;25.48;10.02;;;1.50;99.90;;;;;;5073104;28;20041;-65
2024/01/20 12:02:15;;;;;;;30.85;8.95;;;1.50;99.90;;;;;;5073240;28;20654;-66
2024/01/20 12:04:41;;;;;;;27.90;10.65;;;1.60;99.90;;;;;;5073098;28;20029;-66
2024/01/20 12:07:07;;;;;;;20.65;9.90;;;1.60;99.90;;;;;;5072900;28;20021;-66
2024/01/20 12:09:33;;;;;;;20.90;8.32;;;1.60;99.90;;;;;;5073045;28;20465;-66
2024/01/20 12:11:59;;;;;;;22.17;8.48;;;1.70;99.90;;;;;;5073082;28;20021;-66
2024/01/20 12:14:24;;;;;;;23.10;9.30;;;1.80;99.90;;;;;;5073092;28;20032;-66
2024/01/20 12:16:50;;;;;;;22.20;8.20;;;1.70;99.90;;;;;;5072957;28;20055;-66
2024/01/20 12:19:16;;;;;;;21.65;7.50;;;1.80;99.90;;;;;;5072698;28;20081;-66
2024/01/20 12:21:42;;;;;;;23.77;8.55;;;1.80;99.90;;;;;;5072632;28;20036;-65
2024/01/20 12:24:11;;;;;;;22.08;7.78;;;1.90;99.90;;;;;;5072846;28;20037;-65
2024/01/20 12:26:37;;;;;;;17.27;7.78;;;1.90;99.90;;;;;;5072791;28;20040;-66
2024/01/20 12:29:03;;;;;;;22.10;9.13;;;1.90;99.90;;;;;;5072728;28;20030;-68
2024/01/20 12:31:30;;;;;;;23.45;9.23;;;2.00;99.90;;;;;;5072502;28;20033;-65
2024/01/20 12:33:56;;;;;;;23.00;9.90;;;2.10;99.90;;;;;;5071438;28;20471;-65
2024/01/20 12:36:22;;;;;;;23.52;7.68;;;2.20;99.90;;;;;;5072543;28;20055;-66
2024/01/20 12:38:48;;;;;;;29.17;10.82;;;2.20;99.90;;;;;;5072351;28;20041;-66
2024/01/20 12:41:14;;;;;;;26.88;8.52;;;2.30;99.90;;;;;;5076700;28;20087;-66